AirNav  
 
airports navaids fix Aviation Fuel pilotshop
  

71D Roy Airfield
Grafton, West Virginia, USA

GOING TO GRAFTON?

Reserve a HOTEL

FAA INFORMATION EFFECTIVE 27 OCTOBER 2005

Location

FAA Identifier: 71D
Lat/Long: 39-17-25.3430N / 079-57-05.2730W
39-17.422383N / 079-57.087883W
39.2903731 / -79.9514647
(estimated)
Elevation: 1560 ft. / 475 m (estimated)
Variation: 07W (1985)
From city: 4 miles SE of GRAFTON, WV
Zip code: 26354

Airport Operations

Airport use: Open to the public
Sectional chart: CINCINNATI
Control tower: no
ARTCC: CLEVELAND CENTER
FSS: ELKINS FLIGHT SERVICE STATION [1-800-WX-BRIEF]
NOTAMs facility: EKN (NOTAM-D service available)
Attendance: UNATNDD
Wind indicator: yes
Segmented circle: yes
WHITE TIRES.

Airport Communications

CTAF: 122.9
WX ASOS at CKB (13 nm W): PHONE 3048429240

Nearby radio navigation aids

VOR radial/distance  VOR name  Freq  Var
CKBr085/14.9CLARKSBURG VOR/DME112.6004W
MGWr200/16.5MORGANTOWN VORTAC111.6005W
EKNr024/23.6ELKINS VORTAC114.2007W

 
NDB name  Hdg/Dist  Freq  Var  ID
RANDOLPH COUNTY357/24.228407WRQY .-. --.- -.--

Airport Services

Parking: tiedowns

Runway Information

Runway 1/19

Dimensions: 1500 x 60 ft. / 457 x 18 m
Surface: turf, in fair condition
Runway edge markings: /19 RY OUTLINED BY WHITE TIRES.
RUNWAY 1  RUNWAY 19
Traffic pattern: leftleft
Obstructions: 200 ft. trees, 180 ft. from runway25 ft. tree, 120 ft. left of centerline

Airport Operational Statistics

Aircraft operations: 50/year
100% transient general aviation

Additional Remarks

1 LANDING RWY 01 & TAKE OFF RWY 19 NOT RECOMMENDED.
50 FT TREES 45 FT FM CNTRLN MIDDLE OF RY 01/19 EAST SIDE.
(83) WINDSOCK POOR CONDITION.
DEER ON & INVOF RY.
RUNWAY SOFT WHEN WET.
UNLIMITED VEHICLE ACCESS TO ARPT.
HIGH TERRAIN ALL QUADRANTS.
200 FT RIDGE/TREES 350 FT FM RY 01.
RY 19 HAS 30 FT DROP-OFF 30 FT FM THLD 0B.
RY 19 HAS UPHILL SLOPE.

Instrument Procedures

There are no published instrument procedures at 71D.

Some nearby airports with instrument procedures:

KCKB - Harrison/Marion Regional Airport (13 nm W)
4G7 - Fairmont Municipal Airport-Frankman Field (14 nm NW)
KMGW - Morgantown Municipal Airport-Walter L. Bill Hart Field (21 nm N)
W22 - Upshur County Regional Airport (23 nm SW)
KEKN - Elkins-Randolph County Airport-Jennings Randolph Field (24 nm S)
 
Loc | Ops | Rwys | IFR | FBO | Links
Com | Nav | Svcs | Stats | Notes
 
Area around 71D (Roy Airfield)
 
Road maps at: MapQuest MapPoint Yahoo! Maps Google Rand McNally
Topographic chart at: TopoZone
Satellite photo at: TerraServer Virtual Earth

 
Aerial photo
No photo
 
Airport distance calculator
Flying to Roy Airfield? Find the distance to fly.

From to 71D

Sunrise and sunset
Times for 05-Dec-2005
 Local
(UTC-5)
 Zulu
(UTC)
Morning civil twilight06:5511:55
Sunrise07:2512:25
Sunset16:5621:56
Evening civil twilight17:2522:25
 
METAR
KCKB 
12nm W 
050453Z AUTO 27004KT 8SM FEW012 OVC020 01/M03 A3013 RMK AO2 SLP208 T00061028 400280000
KMGW 
22nm N 
050453Z AUTO 24003KT 8SM OVC028 M01/M03 A3013 RMK AO2 SLP215 T10061028 400061006
KW22 
23nm SW 
050500Z AUTO 00000KT 7SM OVC008 M01/M02 A3013 RMK A02 P000
TAF
KCKB 
12nm W 
050201Z 050224 27006KT P6SM OVC008
TEMPO 0206 5SM BR OVC015
FM0900 VRB03KT P6SM SCT015 BKN025
FM1300 VRB03KT P6SM BKN035
FM2100 35004KT P6SM SCT025 BKN040 AMD NOT SKED 03Z-12Z

 
 

Where to Stay: Hotels, Motels, Resorts, B&Bs;, Campgrounds

 In this space we feature lodging establishments that are convenient to the Roy Airfield. If your hotel/inn/B&B;/resort is near the Roy Airfield, provides convenient transportation, or is otherwise attractive to pilots, flight crews, and airport users, consider listing it here.  
Feature A Hotel
 

Hotels in other cities near Roy Airfield

5 in Bridgeport
7 in Fairmont
 

Would you like to see your business listed on this page?

 If your business provides an interesting product or service to pilots, flight crews, aircraft, or users of the Roy Airfield, you should consider listing it here.  To start the listing process, click on the button below
 
Add a business
 

Other Pages about Roy Airfield

Add a link
 
Copyright © AirNav, LLC. All rights reserved. Privacy Policy  Contact